Jard de Ceiba Ii, Puerto Rico
Current Conditions -  °F | °C
As of 12:53 PM on Thursday 25 Dec 2014 (Local Time) from TJNR Reporting Station
Scattered Clouds Scattered Clouds  
Wind Chill: 82°   Ceiling: Unl
Heat Index: 85°   Visibility: 10mi
Dew Point: 68°   Wind: 10mph
Humidity: 62%   Direction: 60°ENE
Pressure: 30.1"   Gusts: NA
Location:  18.2667°N, 65.6476°W
Report Text: TJNR 251653Z AUTO 06009KT 10SM FEW027 FEW060 SCT080 28/20 A3010 RMK AO2 SLP193 T02780200 $
Loading
Personal Weather Stations






























Interactive Weather Map New forecast layout! Learn more

10-Day Weather Forecast

Advertisements
Track Severe Weather on mobile